sensor_id;sensor_type;location;lat;lon;timestamp;temperature;humidity
37594;DHT22;23441;50.856;6.076;2023-03-03T00:01:11;0.60;99.90
37594;DHT22;23441;50.856;6.076;2023-03-03T00:03:36;0.50;99.90
37594;DHT22;23441;50.856;6.076;2023-03-03T00:06:03;0.50;99.90
37594;DHT22;23441;50.856;6.076;2023-03-03T00:08:29;0.50;99.90
37594;DHT22;23441;50.856;6.076;2023-03-03T00:10:57;0.50;99.90
37594;DHT22;23441;50.856;6.076;2023-03-03T00:13:26;0.50;99.90
37594;DHT22;23441;50.856;6.076;2023-03-03T00:15:53;0.50;99.90
37594;DHT22;23441;50.856;6.076;2023-03-03T00:18:25;0.50;99.90
37594;DHT22;23441;50.856;6.076;2023-03-03T00:20:55;0.50;99.90
37594;DHT22;23441;50.856;6.076;2023-03-03T00:23:37;0.50;99.90
37594;DHT22;23441;50.856;6.076;2023-03-03T00:26:15;0.40;99.90
37594;DHT22;23441;50.856;6.076;2023-03-03T00:28:43;0.40;99.90
37594;DHT22;23441;50.856;6.076;2023-03-03T00:31:22;0.30;99.90
37594;DHT22;23441;50.856;6.076;2023-03-03T00:33:52;0.30;99.90
37594;DHT22;23441;50.856;6.076;2023-03-03T00:36:37;0.30;99.90
37594;DHT22;23441;50.856;6.076;2023-03-03T00:39:26;0.30;99.90
37594;DHT22;23441;50.856;6.076;2023-03-03T00:41:54;0.20;99.90
37594;DHT22;23441;50.856;6.076;2023-03-03T00:46:55;0.10;99.90
37594;DHT22;23441;50.856;6.076;2023-03-03T00:49:24;0.10;99.90
37594;DHT22;23441;50.856;6.076;2023-03-03T00:51:51;0.10;99.90
37594;DHT22;23441;50.856;6.076;2023-03-03T00:54:17;0.10;99.90
37594;DHT22;23441;50.856;6.076;2023-03-03T00:56:43;0.00;99.90
37594;DHT22;23441;50.856;6.076;2023-03-03T00:59:09;-0.10;99.90
37594;DHT22;23441;50.856;6.076;2023-03-03T01:01:35;-0.20;99.90
37594;DHT22;23441;50.856;6.076;2023-03-03T01:04:01;-0.30;99.90
37594;DHT22;23441;50.856;6.076;2023-03-03T01:06:26;-0.30;99.90
37594;DHT22;23441;50.856;6.076;2023-03-03T01:08:52;-0.30;99.90
37594;DHT22;23441;50.856;6.076;2023-03-03T01:11:23;-0.40;99.90
37594;DHT22;23441;50.856;6.076;2023-03-03T01:13:51;-0.40;99.90
37594;DHT22;23441;50.856;6.076;2023-03-03T01:16:18;-0.40;99.90
37594;DHT22;23441;50.856;6.076;2023-03-03T01:18:44;-0.40;99.90
37594;DHT22;23441;50.856;6.076;2023-03-03T01:21:10;-0.40;99.90
37594;DHT22;23441;50.856;6.076;2023-03-03T01:23:36;-0.30;99.90
37594;DHT22;23441;50.856;6.076;2023-03-03T01:26:02;-0.30;99.90
37594;DHT22;23441;50.856;6.076;2023-03-03T01:28:28;-0.30;99.90
37594;DHT22;23441;50.856;6.076;2023-03-03T01:30:54;-0.20;99.90
37594;DHT22;23441;50.856;6.076;2023-03-03T01:33:19;-0.30;99.90
37594;DHT22;23441;50.856;6.076;2023-03-03T01:35:46;-0.30;99.90
37594;DHT22;23441;50.856;6.076;2023-03-03T01:38:13;-0.20;99.90
37594;DHT22;23441;50.856;6.076;2023-03-03T01:40:39;-0.20;99.90
37594;DHT22;23441;50.856;6.076;2023-03-03T01:43:06;-0.10;99.90
37594;DHT22;23441;50.856;6.076;2023-03-03T01:54:35;0.00;99.90
37594;DHT22;23441;50.856;6.076;2023-03-03T01:57:05;0.10;99.90
37594;DHT22;23441;50.856;6.076;2023-03-03T01:59:34;0.10;99.90
37594;DHT22;23441;50.856;6.076;2023-03-03T02:02:01;0.10;99.90
37594;DHT22;23441;50.856;6.076;2023-03-03T02:04:27;0.20;99.90
37594;DHT22;23441;50.856;6.076;2023-03-03T02:06:59;0.20;99.90
37594;DHT22;23441;50.856;6.076;2023-03-03T02:10:05;0.20;99.90
37594;DHT22;23441;50.856;6.076;2023-03-03T02:12:50;0.20;99.90
37594;DHT22;23441;50.856;6.076;2023-03-03T02:15:22;0.20;99.90
37594;DHT22;23441;50.856;6.076;2023-03-03T02:17:51;0.10;99.90
37594;DHT22;23441;50.856;6.076;2023-03-03T02:21:02;0.10;99.90
37594;DHT22;23441;50.856;6.076;2023-03-03T02:23:08;0.10;99.90
37594;DHT22;23441;50.856;6.076;2023-03-03T02:28:21;0.10;99.90
37594;DHT22;23441;50.856;6.076;2023-03-03T02:30:47;0.00;99.90
37594;DHT22;23441;50.856;6.076;2023-03-03T02:33:12;0.00;99.90
37594;DHT22;23441;50.856;6.076;2023-03-03T02:35:39;0.00;99.90
37594;DHT22;23441;50.856;6.076;2023-03-03T02:38:11;0.00;99.90
37594;DHT22;23441;50.856;6.076;2023-03-03T02:40:46;0.00;99.90
37594;DHT22;23441;50.856;6.076;2023-03-03T02:43:15;0.00;99.90
37594;DHT22;23441;50.856;6.076;2023-03-03T02:45:43;-0.10;99.90
37594;DHT22;23441;50.856;6.076;2023-03-03T02:48:09;-0.10;99.90
37594;DHT22;23441;50.856;6.076;2023-03-03T02:50:36;-0.10;99.90
37594;DHT22;23441;50.856;6.076;2023-03-03T02:53:02;0.00;99.90
37594;DHT22;23441;50.856;6.076;2023-03-03T02:55:27;0.10;99.90
37594;DHT22;23441;50.856;6.076;2023-03-03T02:57:53;0.00;99.90
37594;DHT22;23441;50.856;6.076;2023-03-03T03:00:19;0.00;99.90
37594;DHT22;23441;50.856;6.076;2023-03-03T03:02:45;0.10;99.90
37594;DHT22;23441;50.856;6.076;2023-03-03T03:05:11;0.10;99.90
37594;DHT22;23441;50.856;6.076;2023-03-03T03:07:37;0.10;99.90
37594;DHT22;23441;50.856;6.076;2023-03-03T03:10:03;0.10;99.90
37594;DHT22;23441;50.856;6.076;2023-03-03T03:12:28;0.10;99.90
37594;DHT22;23441;50.856;6.076;2023-03-03T03:14:54;0.10;99.90
37594;DHT22;23441;50.856;6.076;2023-03-03T03:17:19;0.20;99.90
37594;DHT22;23441;50.856;6.076;2023-03-03T03:19:45;0.10;99.90
37594;DHT22;23441;50.856;6.076;2023-03-03T03:22:11;0.10;99.90
37594;DHT22;23441;50.856;6.076;2023-03-03T03:24:36;0.10;99.90
37594;DHT22;23441;50.856;6.076;2023-03-03T03:27:02;0.10;99.90
37594;DHT22;23441;50.856;6.076;2023-03-03T03:29:27;0.10;99.90
37594;DHT22;23441;50.856;6.076;2023-03-03T03:31:53;0.10;99.90
37594;DHT22;23441;50.856;6.076;2023-03-03T03:34:19;0.00;99.90
37594;DHT22;23441;50.856;6.076;2023-03-03T03:36:44;0.00;99.90
37594;DHT22;23441;50.856;6.076;2023-03-03T03:39:11;0.00;99.90
37594;DHT22;23441;50.856;6.076;2023-03-03T03:41:37;0.00;99.90
37594;DHT22;23441;50.856;6.076;2023-03-03T03:44:02;0.00;99.90
37594;DHT22;23441;50.856;6.076;2023-03-03T03:46:28;0.00;99.90
37594;DHT22;23441;50.856;6.076;2023-03-03T03:48:54;0.10;99.90
37594;DHT22;23441;50.856;6.076;2023-03-03T03:51:19;0.00;99.90
37594;DHT22;23441;50.856;6.076;2023-03-03T03:53:45;0.00;99.90
37594;DHT22;23441;50.856;6.076;2023-03-03T03:56:11;0.10;99.90
37594;DHT22;23441;50.856;6.076;2023-03-03T03:58:36;0.10;99.90
37594;DHT22;23441;50.856;6.076;2023-03-03T04:01:04;0.10;99.90
37594;DHT22;23441;50.856;6.076;2023-03-03T04:03:30;0.10;99.90
37594;DHT22;23441;50.856;6.076;2023-03-03T04:05:55;0.10;99.90
37594;DHT22;23441;50.856;6.076;2023-03-03T04:08:21;0.00;99.90
37594;DHT22;23441;50.856;6.076;2023-03-03T04:10:47;0.00;99.90
37594;DHT22;23441;50.856;6.076;2023-03-03T04:13:12;0.00;99.90
37594;DHT22;23441;50.856;6.076;2023-03-03T04:15:38;0.00;99.90
37594;DHT22;23441;50.856;6.076;2023-03-03T04:18:03;0.00;99.90
37594;DHT22;23441;50.856;6.076;2023-03-03T04:20:29;0.00;99.90
37594;DHT22;23441;50.856;6.076;2023-03-03T04:22:55;0.10;99.90
37594;DHT22;23441;50.856;6.076;2023-03-03T04:25:21;0.10;99.90
37594;DHT22;23441;50.856;6.076;2023-03-03T04:27:47;0.10;99.90
37594;DHT22;23441;50.856;6.076;2023-03-03T04:30:14;0.00;99.90
37594;DHT22;23441;50.856;6.076;2023-03-03T04:32:40;0.10;99.90
37594;DHT22;23441;50.856;6.076;2023-03-03T04:35:07;0.00;99.90
37594;DHT22;23441;50.856;6.076;2023-03-03T04:37:33;0.00;99.90
37594;DHT22;23441;50.856;6.076;2023-03-03T04:39:59;0.00;99.90
37594;DHT22;23441;50.856;6.076;2023-03-03T04:42:25;0.00;99.90
37594;DHT22;23441;50.856;6.076;2023-03-03T04:44:52;0.00;99.90
37594;DHT22;23441;50.856;6.076;2023-03-03T04:47:18;0.10;99.90
37594;DHT22;23441;50.856;6.076;2023-03-03T04:49:43;0.10;99.90
37594;DHT22;23441;50.856;6.076;2023-03-03T04:52:09;0.10;99.90
37594;DHT22;23441;50.856;6.076;2023-03-03T04:54:35;0.10;99.90
37594;DHT22;23441;50.856;6.076;2023-03-03T04:57:00;0.00;99.90
37594;DHT22;23441;50.856;6.076;2023-03-03T04:59:26;0.00;99.90
37594;DHT22;23441;50.856;6.076;2023-03-03T05:01:51;0.00;99.90
37594;DHT22;23441;50.856;6.076;2023-03-03T05:04:17;0.00;99.90
37594;DHT22;23441;50.856;6.076;2023-03-03T05:06:42;0.10;99.90
37594;DHT22;23441;50.856;6.076;2023-03-03T05:09:08;0.00;99.90
37594;DHT22;23441;50.856;6.076;2023-03-03T05:11:34;0.00;99.90
37594;DHT22;23441;50.856;6.076;2023-03-03T05:14:00;0.00;99.90
37594;DHT22;23441;50.856;6.076;2023-03-03T05:16:27;0.00;99.90
37594;DHT22;23441;50.856;6.076;2023-03-03T05:18:53;0.00;99.90
37594;DHT22;23441;50.856;6.076;2023-03-03T05:21:19;0.00;99.90
37594;DHT22;23441;50.856;6.076;2023-03-03T05:23:44;0.10;99.90
37594;DHT22;23441;50.856;6.076;2023-03-03T05:26:10;0.10;99.90
37594;DHT22;23441;50.856;6.076;2023-03-03T05:28:36;0.10;99.90
37594;DHT22;23441;50.856;6.076;2023-03-03T05:31:01;0.10;99.90
37594;DHT22;23441;50.856;6.076;2023-03-03T05:33:27;0.20;99.90
37594;DHT22;23441;50.856;6.076;2023-03-03T05:35:54;0.20;99.90
37594;DHT22;23441;50.856;6.076;2023-03-03T05:38:20;0.10;99.90
37594;DHT22;23441;50.856;6.076;2023-03-03T05:40:46;0.10;99.90
37594;DHT22;23441;50.856;6.076;2023-03-03T05:43:11;0.00;99.90
37594;DHT22;23441;50.856;6.076;2023-03-03T05:45:37;0.10;99.90
37594;DHT22;23441;50.856;6.076;2023-03-03T05:48:03;0.10;99.90
37594;DHT22;23441;50.856;6.076;2023-03-03T05:50:29;0.00;99.90
37594;DHT22;23441;50.856;6.076;2023-03-03T05:52:55;0.10;99.90
37594;DHT22;23441;50.856;6.076;2023-03-03T05:55:21;0.10;99.90
37594;DHT22;23441;50.856;6.076;2023-03-03T05:57:46;0.10;99.90
37594;DHT22;23441;50.856;6.076;2023-03-03T06:00:13;0.10;99.90
37594;DHT22;23441;50.856;6.076;2023-03-03T06:02:40;0.10;99.90
37594;DHT22;23441;50.856;6.076;2023-03-03T06:05:06;0.20;99.90
37594;DHT22;23441;50.856;6.076;2023-03-03T06:07:33;0.10;99.90
37594;DHT22;23441;50.856;6.076;2023-03-03T06:09:58;0.10;99.90
37594;DHT22;23441;50.856;6.076;2023-03-03T06:12:24;0.10;99.90
37594;DHT22;23441;50.856;6.076;2023-03-03T06:14:50;0.10;99.90
37594;DHT22;23441;50.856;6.076;2023-03-03T06:17:15;0.20;99.90
37594;DHT22;23441;50.856;6.076;2023-03-03T06:19:41;0.10;99.90
37594;DHT22;23441;50.856;6.076;2023-03-03T06:22:07;0.20;99.90
37594;DHT22;23441;50.856;6.076;2023-03-03T06:24:33;0.20;99.90
37594;DHT22;23441;50.856;6.076;2023-03-03T06:26:59;0.30;99.90
37594;DHT22;23441;50.856;6.076;2023-03-03T06:29:26;0.20;99.90
37594;DHT22;23441;50.856;6.076;2023-03-03T06:31:52;0.30;99.90
37594;DHT22;23441;50.856;6.076;2023-03-03T06:34:18;0.30;99.90
37594;DHT22;23441;50.856;6.076;2023-03-03T06:36:44;0.30;99.90
37594;DHT22;23441;50.856;6.076;2023-03-03T06:39:09;0.30;99.90
37594;DHT22;23441;50.856;6.076;2023-03-03T06:41:36;0.40;99.90
37594;DHT22;23441;50.856;6.076;2023-03-03T06:44:01;0.30;99.90
37594;DHT22;23441;50.856;6.076;2023-03-03T06:46:27;0.30;99.90
37594;DHT22;23441;50.856;6.076;2023-03-03T06:48:53;0.20;99.90
37594;DHT22;23441;50.856;6.076;2023-03-03T06:51:30;0.30;99.90
37594;DHT22;23441;50.856;6.076;2023-03-03T06:53:57;0.20;99.90
37594;DHT22;23441;50.856;6.076;2023-03-03T06:56:25;0.30;99.90
37594;DHT22;23441;50.856;6.076;2023-03-03T06:58:55;0.20;99.90
37594;DHT22;23441;50.856;6.076;2023-03-03T07:01:22;0.30;99.90
37594;DHT22;23441;50.856;6.076;2023-03-03T07:03:48;0.30;99.90
37594;DHT22;23441;50.856;6.076;2023-03-03T07:06:24;0.40;99.90
37594;DHT22;23441;50.856;6.076;2023-03-03T07:08:54;0.40;99.90
37594;DHT22;23441;50.856;6.076;2023-03-03T07:11:22;0.40;99.90
37594;DHT22;23441;50.856;6.076;2023-03-03T07:13:53;0.30;99.90
37594;DHT22;23441;50.856;6.076;2023-03-03T07:16:24;0.30;99.90
37594;DHT22;23441;50.856;6.076;2023-03-03T07:18:59;0.30;99.90
37594;DHT22;23441;50.856;6.076;2023-03-03T07:21:36;0.40;99.90
37594;DHT22;23441;50.856;6.076;2023-03-03T07:26:45;0.40;99.90
37594;DHT22;23441;50.856;6.076;2023-03-03T07:29:25;0.40;99.90
37594;DHT22;23441;50.856;6.076;2023-03-03T07:31:53;0.40;99.90
37594;DHT22;23441;50.856;6.076;2023-03-03T07:34:30;0.50;99.90
37594;DHT22;23441;50.856;6.076;2023-03-03T07:37:10;0.40;99.90
37594;DHT22;23441;50.856;6.076;2023-03-03T07:39:39;0.40;99.90
37594;DHT22;23441;50.856;6.076;2023-03-03T07:44:43;0.40;99.90
37594;DHT22;23441;50.856;6.076;2023-03-03T07:47:21;0.40;99.90
37594;DHT22;23441;50.856;6.076;2023-03-03T07:49:48;0.40;99.90
37594;DHT22;23441;50.856;6.076;2023-03-03T07:52:23;0.40;99.90
37594;DHT22;23441;50.856;6.076;2023-03-03T07:54:50;0.40;99.90
37594;DHT22;23441;50.856;6.076;2023-03-03T07:57:36;0.40;99.90
37594;DHT22;23441;50.856;6.076;2023-03-03T08:02:44;0.50;99.90
37594;DHT22;23441;50.856;6.076;2023-03-03T08:13:18;0.50;99.90
37594;DHT22;23441;50.856;6.076;2023-03-03T08:15:45;0.50;99.90
37594;DHT22;23441;50.856;6.076;2023-03-03T08:18:35;0.50;99.90
37594;DHT22;23441;50.856;6.076;2023-03-03T08:21:16;0.50;99.90
37594;DHT22;23441;50.856;6.076;2023-03-03T08:23:43;0.50;99.90
37594;DHT22;23441;50.856;6.076;2023-03-03T08:26:09;0.50;99.90
37594;DHT22;23441;50.856;6.076;2023-03-03T08:28:37;0.50;99.90
37594;DHT22;23441;50.856;6.076;2023-03-03T08:31:03;0.50;99.90
37594;DHT22;23441;50.856;6.076;2023-03-03T08:33:28;0.50;99.90
37594;DHT22;23441;50.856;6.076;2023-03-03T08:35:54;0.60;99.90
37594;DHT22;23441;50.856;6.076;2023-03-03T08:38:20;0.60;99.90
37594;DHT22;23441;50.856;6.076;2023-03-03T08:40:47;0.40;99.90
37594;DHT22;23441;50.856;6.076;2023-03-03T08:43:14;0.40;99.90
37594;DHT22;23441;50.856;6.076;2023-03-03T08:45:47;0.40;99.90
37594;DHT22;23441;50.856;6.076;2023-03-03T08:48:14;0.40;99.90
37594;DHT22;23441;50.856;6.076;2023-03-03T08:50:40;0.40;99.90
37594;DHT22;23441;50.856;6.076;2023-03-03T08:53:06;0.40;99.90
37594;DHT22;23441;50.856;6.076;2023-03-03T08:55:32;0.40;99.90
37594;DHT22;23441;50.856;6.076;2023-03-03T08:57:58;0.50;99.90
37594;DHT22;23441;50.856;6.076;2023-03-03T09:00:24;0.50;99.90
37594;DHT22;23441;50.856;6.076;2023-03-03T09:02:51;0.50;99.90
37594;DHT22;23441;50.856;6.076;2023-03-03T09:05:18;0.60;99.90
37594;DHT22;23441;50.856;6.076;2023-03-03T09:07:45;0.60;99.90
37594;DHT22;23441;50.856;6.076;2023-03-03T09:10:13;0.70;99.90
37594;DHT22;23441;50.856;6.076;2023-03-03T09:12:41;0.80;99.90
37594;DHT22;23441;50.856;6.076;2023-03-03T09:15:21;0.90;99.90
37594;DHT22;23441;50.856;6.076;2023-03-03T09:17:47;0.90;99.90
37594;DHT22;23441;50.856;6.076;2023-03-03T09:23:39;0.90;99.90
37594;DHT22;23441;50.856;6.076;2023-03-03T09:26:25;0.90;99.90
37594;DHT22;23441;50.856;6.076;2023-03-03T09:29:05;0.80;99.90
37594;DHT22;23441;50.856;6.076;2023-03-03T09:31:54;0.80;99.90
37594;DHT22;23441;50.856;6.076;2023-03-03T09:34:40;0.90;99.90
37594;DHT22;23441;50.856;6.076;2023-03-03T09:37:22;1.00;99.90
37594;DHT22;23441;50.856;6.076;2023-03-03T09:39:55;1.10;99.90
37594;DHT22;23441;50.856;6.076;2023-03-03T09:53:47;1.20;99.90
37594;DHT22;23441;50.856;6.076;2023-03-03T10:01:46;1.00;99.90
37594;DHT22;23441;50.856;6.076;2023-03-03T10:04:41;1.10;99.90
37594;DHT22;23441;50.856;6.076;2023-03-03T10:18:11;1.40;99.90
37594;DHT22;23441;50.856;6.076;2023-03-03T10:20:51;1.50;99.90
37594;DHT22;23441;50.856;6.076;2023-03-03T11:00:18;1.80;99.90
37594;DHT22;23441;50.856;6.076;2023-03-03T11:08:29;2.00;99.90
37594;DHT22;23441;50.856;6.076;2023-03-03T11:14:07;2.10;99.90
37594;DHT22;23441;50.856;6.076;2023-03-03T11:19:54;2.00;99.90
37594;DHT22;23441;50.856;6.076;2023-03-03T11:25:19;2.00;99.90
37594;DHT22;23441;50.856;6.076;2023-03-03T11:31:12;2.00;99.90
37594;DHT22;23441;50.856;6.076;2023-03-03T11:36:24;2.20;99.90
37594;DHT22;23441;50.856;6.076;2023-03-03T11:39:03;2.30;99.90
37594;DHT22;23441;50.856;6.076;2023-03-03T11:50:03;2.30;99.90
37594;DHT22;23441;50.856;6.076;2023-03-03T11:55:16;2.50;99.90
37594;DHT22;23441;50.856;6.076;2023-03-03T11:58:19;2.60;99.90
37594;DHT22;23441;50.856;6.076;2023-03-03T12:03:36;2.60;99.90
37594;DHT22;23441;50.856;6.076;2023-03-03T12:06:07;2.60;99.90
37594;DHT22;23441;50.856;6.076;2023-03-03T12:11:47;2.70;99.90
37594;DHT22;23441;50.856;6.076;2023-03-03T12:14:16;2.80;99.90
37594;DHT22;23441;50.856;6.076;2023-03-03T12:17:00;2.80;99.90
37594;DHT22;23441;50.856;6.076;2023-03-03T12:19:44;2.90;99.90
37594;DHT22;23441;50.856;6.076;2023-03-03T12:22:17;2.90;99.90
37594;DHT22;23441;50.856;6.076;2023-03-03T12:35:45;2.50;99.90
37594;DHT22;23441;50.856;6.076;2023-03-03T12:41:10;2.30;99.90
37594;DHT22;23441;50.856;6.076;2023-03-03T12:46:45;2.80;99.90
37594;DHT22;23441;50.856;6.076;2023-03-03T12:49:11;2.80;99.90
37594;DHT22;23441;50.856;6.076;2023-03-03T13:11:39;3.10;99.90
37594;DHT22;23441;50.856;6.076;2023-03-03T13:13:58;3.00;99.90
37594;DHT22;23441;50.856;6.076;2023-03-03T13:16:39;3.30;99.90
37594;DHT22;23441;50.856;6.076;2023-03-03T13:22:45;3.10;99.90
37594;DHT22;23441;50.856;6.076;2023-03-03T13:27:24;3.40;99.90
37594;DHT22;23441;50.856;6.076;2023-03-03T13:29:59;3.40;99.90
37594;DHT22;23441;50.856;6.076;2023-03-03T13:32:40;3.20;99.90
37594;DHT22;23441;50.856;6.076;2023-03-03T13:35:20;3.10;99.90
37594;DHT22;23441;50.856;6.076;2023-03-03T13:37:52;3.30;99.90
37594;DHT22;23441;50.856;6.076;2023-03-03T13:40:26;3.30;99.90
37594;DHT22;23441;50.856;6.076;2023-03-03T13:42:58;3.50;99.90
37594;DHT22;23441;50.856;6.076;2023-03-03T13:51:13;3.30;99.90
37594;DHT22;23441;50.856;6.076;2023-03-03T13:54:02;3.30;99.90
37594;DHT22;23441;50.856;6.076;2023-03-03T13:59:49;3.60;99.90
37594;DHT22;23441;50.856;6.076;2023-03-03T14:02:40;3.60;99.90
37594;DHT22;23441;50.856;6.076;2023-03-03T14:13:46;3.60;99.90
37594;DHT22;23441;50.856;6.076;2023-03-03T14:19:24;3.60;99.90
37594;DHT22;23441;50.856;6.076;2023-03-03T14:28:03;3.60;99.90
37594;DHT22;23441;50.856;6.076;2023-03-03T14:33:15;3.80;99.90
37594;DHT22;23441;50.856;6.076;2023-03-03T14:35:51;3.90;99.90
37594;DHT22;23441;50.856;6.076;2023-03-03T14:41:38;3.90;99.90
37594;DHT22;23441;50.856;6.076;2023-03-03T14:44:29;3.70;99.90
37594;DHT22;23441;50.856;6.076;2023-03-03T14:49:34;3.90;99.90
37594;DHT22;23441;50.856;6.076;2023-03-03T14:52:10;3.80;99.90
37594;DHT22;23441;50.856;6.076;2023-03-03T14:54:45;3.70;99.90
37594;DHT22;23441;50.856;6.076;2023-03-03T15:05:27;3.60;99.90
37594;DHT22;23441;50.856;6.076;2023-03-03T15:08:07;3.50;99.90
37594;DHT22;23441;50.856;6.076;2023-03-03T15:10:38;3.60;99.90
37594;DHT22;23441;50.856;6.076;2023-03-03T15:13:23;3.50;99.90
37594;DHT22;23441;50.856;6.076;2023-03-03T15:16:03;3.40;99.90
37594;DHT22;23441;50.856;6.076;2023-03-03T15:18:31;3.60;99.90
37594;DHT22;23441;50.856;6.076;2023-03-03T15:21:07;3.70;99.90
37594;DHT22;23441;50.856;6.076;2023-03-03T15:26:41;3.60;99.90
37594;DHT22;23441;50.856;6.076;2023-03-03T15:40:49;3.60;99.90
37594;DHT22;23441;50.856;6.076;2023-03-03T15:43:38;3.70;99.90
37594;DHT22;23441;50.856;6.076;2023-03-03T15:50:10;3.90;99.90
37594;DHT22;23441;50.856;6.076;2023-03-03T16:04:08;3.50;99.90
37594;DHT22;23441;50.856;6.076;2023-03-03T16:09:38;3.40;99.90
37594;DHT22;23441;50.856;6.076;2023-03-03T16:21:09;3.20;99.90
37594;DHT22;23441;50.856;6.076;2023-03-03T16:26:50;3.20;99.90
37594;DHT22;23441;50.856;6.076;2023-03-03T16:32:23;3.00;99.90
37594;DHT22;23441;50.856;6.076;2023-03-03T16:37:30;2.90;99.90
37594;DHT22;23441;50.856;6.076;2023-03-03T16:42:37;3.00;99.90
37594;DHT22;23441;50.856;6.076;2023-03-03T16:45:29;3.00;99.90
37594;DHT22;23441;50.856;6.076;2023-03-03T16:50:30;2.90;99.90
37594;DHT22;23441;50.856;6.076;2023-03-03T16:53:29;2.80;99.90
37594;DHT22;23441;50.856;6.076;2023-03-03T16:56:17;2.90;99.90
37594;DHT22;23441;50.856;6.076;2023-03-03T17:07:23;2.30;99.90
37594;DHT22;23441;50.856;6.076;2023-03-03T17:10:16;2.20;99.90
37594;DHT22;23441;50.856;6.076;2023-03-03T17:27:32;1.50;99.90
37594;DHT22;23441;50.856;6.076;2023-03-03T17:29:48;1.50;99.90
37594;DHT22;23441;50.856;6.076;2023-03-03T17:35:09;1.40;99.90
37594;DHT22;23441;50.856;6.076;2023-03-03T17:43:55;1.30;99.90
37594;DHT22;23441;50.856;6.076;2023-03-03T17:49:20;1.20;99.90
37594;DHT22;23441;50.856;6.076;2023-03-03T18:08:46;0.80;99.90
37594;DHT22;23441;50.856;6.076;2023-03-03T18:21:42;0.50;99.90
37594;DHT22;23441;50.856;6.076;2023-03-03T18:24:37;0.60;99.90
37594;DHT22;23441;50.856;6.076;2023-03-03T18:29:38;0.50;99.90
37594;DHT22;23441;50.856;6.076;2023-03-03T18:32:17;0.40;99.90
37594;DHT22;23441;50.856;6.076;2023-03-03T18:34:44;0.40;99.90
37594;DHT22;23441;50.856;6.076;2023-03-03T18:39:46;0.30;99.90
37594;DHT22;23441;50.856;6.076;2023-03-03T18:44:42;0.30;99.90
37594;DHT22;23441;50.856;6.076;2023-03-03T18:47:09;0.30;99.90
37594;DHT22;23441;50.856;6.076;2023-03-03T18:52:33;0.30;99.90
37594;DHT22;23441;50.856;6.076;2023-03-03T18:57:37;0.20;99.90
37594;DHT22;23441;50.856;6.076;2023-03-03T19:02:49;0.10;99.90
37594;DHT22;23441;50.856;6.076;2023-03-03T19:07:49;0.00;99.90
37594;DHT22;23441;50.856;6.076;2023-03-03T19:20:38;-0.20;99.90
37594;DHT22;23441;50.856;6.076;2023-03-03T19:23:10;-0.20;99.90
37594;DHT22;23441;50.856;6.076;2023-03-03T19:25:37;-0.20;99.90
37594;DHT22;23441;50.856;6.076;2023-03-03T19:28:43;-0.10;99.90
37594;DHT22;23441;50.856;6.076;2023-03-03T19:56:16;-0.10;99.90
37594;DHT22;23441;50.856;6.076;2023-03-03T19:59:05;0.00;99.90
37594;DHT22;23441;50.856;6.076;2023-03-03T20:04:27;0.10;99.90
37594;DHT22;23441;50.856;6.076;2023-03-03T20:07:06;0.10;99.90
37594;DHT22;23441;50.856;6.076;2023-03-03T20:09:55;0.20;99.90
37594;DHT22;23441;50.856;6.076;2023-03-03T20:12:52;0.30;99.90
37594;DHT22;23441;50.856;6.076;2023-03-03T20:15:40;0.50;99.90
37594;DHT22;23441;50.856;6.076;2023-03-03T20:18:58;0.50;99.90
37594;DHT22;23441;50.856;6.076;2023-03-03T20:21:33;0.60;99.90
37594;DHT22;23441;50.856;6.076;2023-03-03T20:27:01;0.70;99.90
37594;DHT22;23441;50.856;6.076;2023-03-03T20:38:02;0.80;99.90
37594;DHT22;23441;50.856;6.076;2023-03-03T20:40:37;0.90;99.90
37594;DHT22;23441;50.856;6.076;2023-03-03T20:46:01;0.90;99.90
37594;DHT22;23441;50.856;6.076;2023-03-03T20:51:58;1.00;99.90
37594;DHT22;23441;50.856;6.076;2023-03-03T20:57:22;1.00;99.90
37594;DHT22;23441;50.856;6.076;2023-03-03T21:02:46;1.10;99.90
37594;DHT22;23441;50.856;6.076;2023-03-03T21:05:17;1.20;99.90
37594;DHT22;23441;50.856;6.076;2023-03-03T21:08:00;1.20;99.90
37594;DHT22;23441;50.856;6.076;2023-03-03T21:10:35;1.20;99.90
37594;DHT22;23441;50.856;6.076;2023-03-03T21:13:31;1.20;99.90
37594;DHT22;23441;50.856;6.076;2023-03-03T21:16:48;1.10;99.90
37594;DHT22;23441;50.856;6.076;2023-03-03T21:19:03;1.00;99.90
37594;DHT22;23441;50.856;6.076;2023-03-03T21:21:32;1.00;99.90
37594;DHT22;23441;50.856;6.076;2023-03-03T21:23:58;1.10;99.90
37594;DHT22;23441;50.856;6.076;2023-03-03T21:26:43;1.20;99.90
37594;DHT22;23441;50.856;6.076;2023-03-03T21:29:32;1.10;99.90
37594;DHT22;23441;50.856;6.076;2023-03-03T21:32:02;1.10;99.90
37594;DHT22;23441;50.856;6.076;2023-03-03T21:34:39;1.10;99.90
37594;DHT22;23441;50.856;6.076;2023-03-03T21:37:10;1.10;99.90
37594;DHT22;23441;50.856;6.076;2023-03-03T21:39:41;1.10;99.90
37594;DHT22;23441;50.856;6.076;2023-03-03T21:42:13;1.10;99.90
37594;DHT22;23441;50.856;6.076;2023-03-03T21:44:44;1.20;99.90
37594;DHT22;23441;50.856;6.076;2023-03-03T21:47:19;1.30;99.90
37594;DHT22;23441;50.856;6.076;2023-03-03T21:49:46;1.30;99.90
37594;DHT22;23441;50.856;6.076;2023-03-03T21:52:14;1.20;99.90
37594;DHT22;23441;50.856;6.076;2023-03-03T21:54:50;1.30;99.90
37594;DHT22;23441;50.856;6.076;2023-03-03T21:57:16;1.30;99.90
37594;DHT22;23441;50.856;6.076;2023-03-03T21:59:42;1.40;99.90
37594;DHT22;23441;50.856;6.076;2023-03-03T22:02:08;1.40;99.90
37594;DHT22;23441;50.856;6.076;2023-03-03T22:04:34;1.40;99.90
37594;DHT22;23441;50.856;6.076;2023-03-03T22:07:02;1.40;99.90
37594;DHT22;23441;50.856;6.076;2023-03-03T22:09:28;1.40;99.90
37594;DHT22;23441;50.856;6.076;2023-03-03T22:11:54;1.40;99.90
37594;DHT22;23441;50.856;6.076;2023-03-03T22:14:20;1.40;99.90
37594;DHT22;23441;50.856;6.076;2023-03-03T22:16:46;1.40;99.90
37594;DHT22;23441;50.856;6.076;2023-03-03T22:19:11;1.40;99.90
37594;DHT22;23441;50.856;6.076;2023-03-03T22:21:38;1.40;99.90
37594;DHT22;23441;50.856;6.076;2023-03-03T22:24:05;1.40;99.90
37594;DHT22;23441;50.856;6.076;2023-03-03T22:26:30;1.40;99.90
37594;DHT22;23441;50.856;6.076;2023-03-03T22:28:56;1.30;99.90
37594;DHT22;23441;50.856;6.076;2023-03-03T22:31:22;1.40;99.90
37594;DHT22;23441;50.856;6.076;2023-03-03T22:33:48;1.40;99.90
37594;DHT22;23441;50.856;6.076;2023-03-03T22:36:14;1.40;99.90
37594;DHT22;23441;50.856;6.076;2023-03-03T22:38:41;1.40;99.90
37594;DHT22;23441;50.856;6.076;2023-03-03T22:41:07;1.40;99.90
37594;DHT22;23441;50.856;6.076;2023-03-03T22:43:33;1.40;99.90
37594;DHT22;23441;50.856;6.076;2023-03-03T22:45:59;1.40;99.90
37594;DHT22;23441;50.856;6.076;2023-03-03T22:48:26;1.20;99.90
37594;DHT22;23441;50.856;6.076;2023-03-03T22:50:52;1.30;99.90
37594;DHT22;23441;50.856;6.076;2023-03-03T22:53:18;1.20;99.90
37594;DHT22;23441;50.856;6.076;2023-03-03T22:55:45;1.20;99.90
37594;DHT22;23441;50.856;6.076;2023-03-03T22:58:11;1.30;99.90
37594;DHT22;23441;50.856;6.076;2023-03-03T23:00:37;1.30;99.90
37594;DHT22;23441;50.856;6.076;2023-03-03T23:03:06;1.30;99.90
37594;DHT22;23441;50.856;6.076;2023-03-03T23:05:32;1.30;99.90
37594;DHT22;23441;50.856;6.076;2023-03-03T23:07:58;1.30;99.90